sensor_id;sensor_type;location;lat;lon;timestamp;pressure;altitude;pressure_sealevel;temperature;humidity
43119;BME280;28729;49.838;8.650;2023-04-08T00:01:42;100144.00;;;8.63;100.00
43119;BME280;28729;49.838;8.650;2023-04-08T00:05:44;100149.72;;;8.62;100.00
43119;BME280;28729;49.838;8.650;2023-04-08T00:09:46;100147.22;;;8.60;100.00
43119;BME280;28729;49.838;8.650;2023-04-08T00:13:48;100145.13;;;8.56;100.00
43119;BME280;28729;49.838;8.650;2023-04-08T00:17:50;100154.66;;;8.53;100.00
43119;BME280;28729;49.838;8.650;2023-04-08T00:21:52;100150.31;;;8.46;100.00
43119;BME280;28729;49.838;8.650;2023-04-08T00:25:54;100156.50;;;8.41;100.00
43119;BME280;28729;49.838;8.650;2023-04-08T00:29:55;100158.41;;;8.40;100.00
43119;BME280;28729;49.838;8.650;2023-04-08T00:33:57;100149.31;;;8.40;100.00
43119;BME280;28729;49.838;8.650;2023-04-08T00:37:59;100154.00;;;8.39;100.00
43119;BME280;28729;49.838;8.650;2023-04-08T00:42:02;100156.91;;;8.38;100.00
43119;BME280;28729;49.838;8.650;2023-04-08T00:46:04;100162.25;;;8.33;100.00
43119;BME280;28729;49.838;8.650;2023-04-08T00:50:08;100162.09;;;8.28;100.00
43119;BME280;28729;49.838;8.650;2023-04-08T00:54:11;100168.88;;;8.25;100.00
43119;BME280;28729;49.838;8.650;2023-04-08T00:58:13;100164.66;;;8.22;100.00
43119;BME280;28729;49.838;8.650;2023-04-08T01:02:40;100173.59;;;8.18;100.00
43119;BME280;28729;49.838;8.650;2023-04-08T01:06:58;100166.66;;;8.15;100.00
43119;BME280;28729;49.838;8.650;2023-04-08T01:11:10;100169.84;;;8.12;100.00
43119;BME280;28729;49.838;8.650;2023-04-08T01:15:13;100163.75;;;8.10;100.00
43119;BME280;28729;49.838;8.650;2023-04-08T01:19:26;100170.06;;;8.11;100.00
43119;BME280;28729;49.838;8.650;2023-04-08T01:27:46;100160.59;;;8.07;100.00
43119;BME280;28729;49.838;8.650;2023-04-08T01:31:49;100162.72;;;8.05;100.00
43119;BME280;28729;49.838;8.650;2023-04-08T01:35:53;100165.28;;;7.99;100.00
43119;BME280;28729;49.838;8.650;2023-04-08T01:39:55;100164.06;;;7.95;100.00
43119;BME280;28729;49.838;8.650;2023-04-08T01:43:58;100162.41;;;7.94;100.00
43119;BME280;28729;49.838;8.650;2023-04-08T01:48:01;100160.94;;;7.92;100.00
43119;BME280;28729;49.838;8.650;2023-04-08T01:52:05;100158.66;;;7.89;100.00
43119;BME280;28729;49.838;8.650;2023-04-08T01:56:11;100152.53;;;7.87;100.00
43119;BME280;28729;49.838;8.650;2023-04-08T02:00:18;100159.69;;;7.88;100.00
43119;BME280;28729;49.838;8.650;2023-04-08T02:04:21;100161.84;;;7.86;100.00
43119;BME280;28729;49.838;8.650;2023-04-08T02:08:23;100161.00;;;7.85;100.00
43119;BME280;28729;49.838;8.650;2023-04-08T02:12:26;100164.16;;;7.82;100.00
43119;BME280;28729;49.838;8.650;2023-04-08T02:16:38;100159.75;;;7.81;100.00
43119;BME280;28729;49.838;8.650;2023-04-08T02:20:47;100162.31;;;7.76;100.00
43119;BME280;28729;49.838;8.650;2023-04-08T02:24:51;100170.53;;;7.76;100.00
43119;BME280;28729;49.838;8.650;2023-04-08T02:28:55;100169.72;;;7.75;100.00
43119;BME280;28729;49.838;8.650;2023-04-08T02:32:57;100167.66;;;7.71;100.00
43119;BME280;28729;49.838;8.650;2023-04-08T02:37:02;100170.41;;;7.64;100.00
43119;BME280;28729;49.838;8.650;2023-04-08T02:41:04;100178.31;;;7.54;100.00
43119;BME280;28729;49.838;8.650;2023-04-08T02:45:06;100176.25;;;7.43;100.00
43119;BME280;28729;49.838;8.650;2023-04-08T02:49:08;100175.72;;;7.27;100.00
43119;BME280;28729;49.838;8.650;2023-04-08T02:53:10;100177.72;;;7.07;100.00
43119;BME280;28729;49.838;8.650;2023-04-08T02:57:12;100182.25;;;6.88;100.00
43119;BME280;28729;49.838;8.650;2023-04-08T03:01:14;100182.94;;;6.70;100.00
43119;BME280;28729;49.838;8.650;2023-04-08T03:05:16;100178.78;;;6.54;100.00
43119;BME280;28729;49.838;8.650;2023-04-08T03:09:18;100180.47;;;6.42;100.00
43119;BME280;28729;49.838;8.650;2023-04-08T03:13:19;100183.25;;;6.29;100.00
43119;BME280;28729;49.838;8.650;2023-04-08T03:17:21;100184.09;;;6.16;100.00
43119;BME280;28729;49.838;8.650;2023-04-08T03:21:23;100184.09;;;6.03;100.00
43119;BME280;28729;49.838;8.650;2023-04-08T03:25:25;100183.25;;;5.89;100.00
43119;BME280;28729;49.838;8.650;2023-04-08T03:29:27;100185.53;;;5.72;100.00
43119;BME280;28729;49.838;8.650;2023-04-08T03:33:29;100187.22;;;5.60;100.00
43119;BME280;28729;49.838;8.650;2023-04-08T03:37:31;100195.84;;;5.57;100.00
43119;BME280;28729;49.838;8.650;2023-04-08T03:41:32;100195.19;;;5.48;100.00
43119;BME280;28729;49.838;8.650;2023-04-08T03:45:34;100202.72;;;5.39;100.00
43119;BME280;28729;49.838;8.650;2023-04-08T03:49:36;100197.69;;;5.36;100.00
43119;BME280;28729;49.838;8.650;2023-04-08T03:53:38;100197.03;;;5.34;100.00
43119;BME280;28729;49.838;8.650;2023-04-08T03:57:39;100194.06;;;5.29;100.00
43119;BME280;28729;49.838;8.650;2023-04-08T04:01:41;100200.34;;;5.23;100.00
43119;BME280;28729;49.838;8.650;2023-04-08T04:05:44;100201.41;;;5.15;100.00
43119;BME280;28729;49.838;8.650;2023-04-08T04:09:46;100201.38;;;5.09;100.00
43119;BME280;28729;49.838;8.650;2023-04-08T04:13:48;100207.63;;;5.02;100.00
43119;BME280;28729;49.838;8.650;2023-04-08T04:17:49;100218.34;;;4.97;100.00
43119;BME280;28729;49.838;8.650;2023-04-08T04:21:51;100210.97;;;4.91;100.00
43119;BME280;28729;49.838;8.650;2023-04-08T04:25:53;100211.78;;;4.85;100.00
43119;BME280;28729;49.838;8.650;2023-04-08T04:29:55;100218.09;;;4.86;100.00
43119;BME280;28729;49.838;8.650;2023-04-08T04:33:56;100215.31;;;4.79;100.00
43119;BME280;28729;49.838;8.650;2023-04-08T04:37:58;100213.00;;;4.76;100.00
43119;BME280;28729;49.838;8.650;2023-04-08T04:42:00;100224.50;;;4.71;100.00
43119;BME280;28729;49.838;8.650;2023-04-08T04:46:02;100225.16;;;4.73;100.00
43119;BME280;28729;49.838;8.650;2023-04-08T04:50:05;100218.22;;;4.71;100.00
43119;BME280;28729;49.838;8.650;2023-04-08T04:54:07;100228.47;;;4.69;100.00
43119;BME280;28729;49.838;8.650;2023-04-08T04:58:09;100239.81;;;4.66;100.00
43119;BME280;28729;49.838;8.650;2023-04-08T05:02:11;100234.09;;;4.61;100.00
43119;BME280;28729;49.838;8.650;2023-04-08T05:06:13;100233.47;;;4.59;100.00
43119;BME280;28729;49.838;8.650;2023-04-08T05:10:14;100239.34;;;4.55;100.00
43119;BME280;28729;49.838;8.650;2023-04-08T05:14:16;100248.53;;;4.54;100.00
43119;BME280;28729;49.838;8.650;2023-04-08T05:18:18;100244.53;;;4.50;100.00
43119;BME280;28729;49.838;8.650;2023-04-08T05:22:20;100249.56;;;4.47;100.00
43119;BME280;28729;49.838;8.650;2023-04-08T05:26:22;100249.97;;;4.44;100.00
43119;BME280;28729;49.838;8.650;2023-04-08T05:30:24;100252.03;;;4.42;100.00
43119;BME280;28729;49.838;8.650;2023-04-08T05:34:26;100244.69;;;4.42;100.00
43119;BME280;28729;49.838;8.650;2023-04-08T05:38:27;100256.66;;;4.41;100.00
43119;BME280;28729;49.838;8.650;2023-04-08T05:42:29;100266.72;;;4.41;100.00
43119;BME280;28729;49.838;8.650;2023-04-08T05:46:32;100262.78;;;4.43;100.00
43119;BME280;28729;49.838;8.650;2023-04-08T05:50:34;100266.78;;;4.47;100.00
43119;BME280;28729;49.838;8.650;2023-04-08T05:54:36;100273.50;;;4.51;100.00
43119;BME280;28729;49.838;8.650;2023-04-08T05:58:39;100283.63;;;4.57;100.00
43119;BME280;28729;49.838;8.650;2023-04-08T06:02:41;100289.34;;;4.63;100.00
43119;BME280;28729;49.838;8.650;2023-04-08T06:06:43;100299.28;;;4.70;100.00
43119;BME280;28729;49.838;8.650;2023-04-08T06:10:49;100297.84;;;4.81;100.00
43119;BME280;28729;49.838;8.650;2023-04-08T06:14:54;100299.59;;;4.89;100.00
43119;BME280;28729;49.838;8.650;2023-04-08T06:18:56;100295.03;;;5.02;100.00
43119;BME280;28729;49.838;8.650;2023-04-08T06:22:58;100299.38;;;5.25;100.00
43119;BME280;28729;49.838;8.650;2023-04-08T06:27:00;100299.88;;;5.48;100.00
43119;BME280;28729;49.838;8.650;2023-04-08T06:31:02;100313.41;;;5.70;100.00
43119;BME280;28729;49.838;8.650;2023-04-08T06:35:05;100311.84;;;5.96;100.00
43119;BME280;28729;49.838;8.650;2023-04-08T06:39:08;100314.81;;;6.27;100.00
43119;BME280;28729;49.838;8.650;2023-04-08T06:43:10;100316.50;;;6.55;100.00
43119;BME280;28729;49.838;8.650;2023-04-08T06:47:14;100320.72;;;6.71;100.00
43119;BME280;28729;49.838;8.650;2023-04-08T06:51:17;100321.97;;;6.88;100.00
43119;BME280;28729;49.838;8.650;2023-04-08T06:55:19;100322.34;;;7.12;100.00
43119;BME280;28729;49.838;8.650;2023-04-08T06:59:21;100326.50;;;7.27;100.00
43119;BME280;28729;49.838;8.650;2023-04-08T07:03:23;100338.63;;;7.51;100.00
43119;BME280;28729;49.838;8.650;2023-04-08T07:07:24;100340.25;;;7.72;100.00
43119;BME280;28729;49.838;8.650;2023-04-08T07:11:26;100341.78;;;8.00;100.00
43119;BME280;28729;49.838;8.650;2023-04-08T07:15:28;100341.72;;;8.13;100.00
43119;BME280;28729;49.838;8.650;2023-04-08T07:19:30;100342.22;;;8.29;100.00
43119;BME280;28729;49.838;8.650;2023-04-08T07:23:32;100351.19;;;8.49;100.00
43119;BME280;28729;49.838;8.650;2023-04-08T07:27:34;100354.81;;;8.75;100.00
43119;BME280;28729;49.838;8.650;2023-04-08T07:31:36;100352.56;;;8.90;100.00
43119;BME280;28729;49.838;8.650;2023-04-08T07:35:38;100352.31;;;8.92;100.00
43119;BME280;28729;49.838;8.650;2023-04-08T07:39:40;100359.44;;;8.99;99.95
43119;BME280;28729;49.838;8.650;2023-04-08T07:43:42;100356.25;;;9.02;95.04
43119;BME280;28729;49.838;8.650;2023-04-08T07:47:43;100364.97;;;9.18;97.02
43119;BME280;28729;49.838;8.650;2023-04-08T07:51:46;100369.44;;;9.37;93.53
43119;BME280;28729;49.838;8.650;2023-04-08T07:55:48;100372.47;;;9.47;92.38
43119;BME280;28729;49.838;8.650;2023-04-08T07:59:50;100368.97;;;9.58;86.96
43119;BME280;28729;49.838;8.650;2023-04-08T08:03:52;100373.47;;;9.53;84.08
43119;BME280;28729;49.838;8.650;2023-04-08T08:07:54;100383.03;;;9.50;84.31
43119;BME280;28729;49.838;8.650;2023-04-08T08:11:56;100386.78;;;9.56;85.96
43119;BME280;28729;49.838;8.650;2023-04-08T08:15:58;100383.41;;;9.91;88.23
43119;BME280;28729;49.838;8.650;2023-04-08T08:20:01;100379.00;;;10.01;82.73
43119;BME280;28729;49.838;8.650;2023-04-08T08:24:04;100385.22;;;9.97;81.09
43119;BME280;28729;49.838;8.650;2023-04-08T08:28:06;100392.59;;;10.15;81.10
43119;BME280;28729;49.838;8.650;2023-04-08T08:32:08;100391.88;;;10.38;80.48
43119;BME280;28729;49.838;8.650;2023-04-08T08:36:11;100386.41;;;10.61;79.35
43119;BME280;28729;49.838;8.650;2023-04-08T08:40:12;100397.75;;;10.83;76.33
43119;BME280;28729;49.838;8.650;2023-04-08T08:44:14;100402.09;;;11.14;75.66
43119;BME280;28729;49.838;8.650;2023-04-08T08:48:16;100409.19;;;11.34;72.63
43119;BME280;28729;49.838;8.650;2023-04-08T08:52:18;100402.69;;;11.63;73.93
43119;BME280;28729;49.838;8.650;2023-04-08T08:56:20;100413.47;;;11.65;70.00
43119;BME280;28729;49.838;8.650;2023-04-08T09:00:35;100413.59;;;11.47;69.01
43119;BME280;28729;49.838;8.650;2023-04-08T09:04:37;100414.91;;;11.32;68.13
43119;BME280;28729;49.838;8.650;2023-04-08T09:08:40;100416.09;;;11.60;66.98
43119;BME280;28729;49.838;8.650;2023-04-08T09:12:54;100421.72;;;11.77;67.87
43119;BME280;28729;49.838;8.650;2023-04-08T09:16:56;100423.75;;;12.05;60.93
43119;BME280;28729;49.838;8.650;2023-04-08T09:20:59;100415.53;;;12.10;63.64
43119;BME280;28729;49.838;8.650;2023-04-08T09:25:21;100431.44;;;12.03;62.42
43119;BME280;28729;49.838;8.650;2023-04-08T09:29:24;100435.84;;;12.04;61.09
43119;BME280;28729;49.838;8.650;2023-04-08T09:33:34;100434.81;;;11.81;60.92
43119;BME280;28729;49.838;8.650;2023-04-08T09:37:38;100438.31;;;11.53;58.73
43119;BME280;28729;49.838;8.650;2023-04-08T09:41:41;100444.44;;;11.67;60.04
43119;BME280;28729;49.838;8.650;2023-04-08T09:45:44;100430.00;;;11.77;60.00
43119;BME280;28729;49.838;8.650;2023-04-08T09:49:50;100436.88;;;11.86;58.52
43119;BME280;28729;49.838;8.650;2023-04-08T09:54:02;100428.81;;;11.96;57.63
43119;BME280;28729;49.838;8.650;2023-04-08T09:58:15;100443.66;;;12.07;57.97
43119;BME280;28729;49.838;8.650;2023-04-08T10:02:22;100430.06;;;12.17;55.67
43119;BME280;28729;49.838;8.650;2023-04-08T10:06:27;100434.19;;;12.03;56.16
43119;BME280;28729;49.838;8.650;2023-04-08T10:10:30;100430.25;;;11.99;58.83
43119;BME280;28729;49.838;8.650;2023-04-08T10:14:32;100434.69;;;11.88;57.74
43119;BME280;28729;49.838;8.650;2023-04-08T10:18:34;100437.19;;;12.01;58.26
43119;BME280;28729;49.838;8.650;2023-04-08T10:26:42;100430.63;;;11.79;57.09
43119;BME280;28729;49.838;8.650;2023-04-08T10:30:51;100427.03;;;11.90;56.06
43119;BME280;28729;49.838;8.650;2023-04-08T10:34:53;100435.47;;;12.12;53.03
43119;BME280;28729;49.838;8.650;2023-04-08T10:38:54;100435.47;;;12.52;54.00
43119;BME280;28729;49.838;8.650;2023-04-08T10:42:57;100432.75;;;12.86;52.38
43119;BME280;28729;49.838;8.650;2023-04-08T10:46:59;100428.31;;;13.19;51.79
43119;BME280;28729;49.838;8.650;2023-04-08T10:51:02;100431.75;;;13.09;52.29
43119;BME280;28729;49.838;8.650;2023-04-08T10:55:04;100426.13;;;13.38;50.54
43119;BME280;28729;49.838;8.650;2023-04-08T10:59:09;100421.91;;;13.69;51.49
43119;BME280;28729;49.838;8.650;2023-04-08T11:03:11;100417.59;;;14.00;51.80
43119;BME280;28729;49.838;8.650;2023-04-08T11:07:19;100425.06;;;14.22;50.31
43119;BME280;28729;49.838;8.650;2023-04-08T11:11:21;100415.66;;;14.23;50.76
43119;BME280;28729;49.838;8.650;2023-04-08T11:15:24;100419.13;;;14.35;50.78
43119;BME280;28729;49.838;8.650;2023-04-08T11:19:26;100424.13;;;14.11;51.79
43119;BME280;28729;49.838;8.650;2023-04-08T11:23:28;100421.84;;;13.86;52.31
43119;BME280;28729;49.838;8.650;2023-04-08T11:27:30;100413.16;;;13.77;53.56
43119;BME280;28729;49.838;8.650;2023-04-08T11:31:32;100414.91;;;14.05;52.39
43119;BME280;28729;49.838;8.650;2023-04-08T11:35:39;100412.50;;;14.14;52.96
43119;BME280;28729;49.838;8.650;2023-04-08T11:39:56;100402.56;;;14.18;52.21
43119;BME280;28729;49.838;8.650;2023-04-08T11:43:57;100412.31;;;14.21;52.61
43119;BME280;28729;49.838;8.650;2023-04-08T11:47:59;100410.66;;;14.47;52.31
43119;BME280;28729;49.838;8.650;2023-04-08T11:52:04;100405.69;;;14.49;52.77
43119;BME280;28729;49.838;8.650;2023-04-08T11:56:19;100408.66;;;14.42;52.33
43119;BME280;28729;49.838;8.650;2023-04-08T12:00:22;100413.63;;;14.62;52.10
43119;BME280;28729;49.838;8.650;2023-04-08T12:04:26;100407.34;;;14.72;51.61
43119;BME280;28729;49.838;8.650;2023-04-08T12:08:28;100404.38;;;14.84;51.46
43119;BME280;28729;49.838;8.650;2023-04-08T12:12:30;100400.59;;;15.27;50.13
43119;BME280;28729;49.838;8.650;2023-04-08T12:16:32;100397.19;;;15.20;50.33
43119;BME280;28729;49.838;8.650;2023-04-08T12:20:34;100401.13;;;15.24;49.57
43119;BME280;28729;49.838;8.650;2023-04-08T12:24:36;100396.59;;;15.13;50.73
43119;BME280;28729;49.838;8.650;2023-04-08T12:28:38;100391.94;;;15.66;50.92
43119;BME280;28729;49.838;8.650;2023-04-08T12:32:40;100388.78;;;16.00;50.63
43119;BME280;28729;49.838;8.650;2023-04-08T12:36:43;100390.72;;;16.93;48.00
43119;BME280;28729;49.838;8.650;2023-04-08T12:40:48;100370.38;;;17.02;45.41
43119;BME280;28729;49.838;8.650;2023-04-08T12:44:50;100367.56;;;17.43;45.65
43119;BME280;28729;49.838;8.650;2023-04-08T12:48:52;100365.00;;;18.32;43.20
43119;BME280;28729;49.838;8.650;2023-04-08T12:53:05;100350.50;;;18.70;43.09
43119;BME280;28729;49.838;8.650;2023-04-08T12:57:07;100351.53;;;19.42;42.70
43119;BME280;28729;49.838;8.650;2023-04-08T13:01:09;100361.53;;;20.20;39.57
43119;BME280;28729;49.838;8.650;2023-04-08T13:05:13;100354.44;;;19.85;39.46
43119;BME280;28729;49.838;8.650;2023-04-08T13:09:14;100368.38;;;19.90;39.55
43119;BME280;28729;49.838;8.650;2023-04-08T13:13:16;100370.16;;;18.94;41.62
43119;BME280;28729;49.838;8.650;2023-04-08T13:17:18;100376.66;;;17.74;42.60
43119;BME280;28729;49.838;8.650;2023-04-08T13:21:20;100369.59;;;18.52;43.23
43119;BME280;28729;49.838;8.650;2023-04-08T13:25:22;100367.94;;;19.78;40.13
43119;BME280;28729;49.838;8.650;2023-04-08T13:29:24;100372.91;;;20.29;39.52
43119;BME280;28729;49.838;8.650;2023-04-08T13:33:26;100361.94;;;20.89;38.67
43119;BME280;28729;49.838;8.650;2023-04-08T13:37:29;100359.13;;;21.96;37.29
43119;BME280;28729;49.838;8.650;2023-04-08T13:41:30;100355.06;;;22.02;36.17
43119;BME280;28729;49.838;8.650;2023-04-08T13:45:32;100372.78;;;21.10;37.04
43119;BME280;28729;49.838;8.650;2023-04-08T13:49:34;100363.03;;;20.56;38.01
43119;BME280;28729;49.838;8.650;2023-04-08T13:53:36;100367.16;;;19.48;38.78
43119;BME280;28729;49.838;8.650;2023-04-08T13:57:38;100358.16;;;18.54;40.38
43119;BME280;28729;49.838;8.650;2023-04-08T14:01:40;100355.28;;;17.44;42.43
43119;BME280;28729;49.838;8.650;2023-04-08T14:05:42;100368.88;;;16.38;46.15
43119;BME280;28729;49.838;8.650;2023-04-08T14:09:43;100364.53;;;15.75;48.93
43119;BME280;28729;49.838;8.650;2023-04-08T14:13:45;100363.41;;;15.33;50.38
43119;BME280;28729;49.838;8.650;2023-04-08T14:17:47;100368.78;;;15.02;52.62
43119;BME280;28729;49.838;8.650;2023-04-08T14:21:50;100370.91;;;14.95;53.91
43119;BME280;28729;49.838;8.650;2023-04-08T14:25:51;100363.00;;;14.77;54.08
43119;BME280;28729;49.838;8.650;2023-04-08T14:29:53;100364.66;;;14.51;56.64
43119;BME280;28729;49.838;8.650;2023-04-08T14:33:55;100371.56;;;14.21;57.70
43119;BME280;28729;49.838;8.650;2023-04-08T14:37:57;100375.34;;;13.88;58.97
43119;BME280;28729;49.838;8.650;2023-04-08T14:41:59;100382.50;;;13.84;59.83
43119;BME280;28729;49.838;8.650;2023-04-08T14:46:02;100386.72;;;13.91;60.82
43119;BME280;28729;49.838;8.650;2023-04-08T14:50:04;100383.97;;;14.13;59.93
43119;BME280;28729;49.838;8.650;2023-04-08T14:54:06;100384.88;;;14.19;60.13
43119;BME280;28729;49.838;8.650;2023-04-08T14:58:08;100390.72;;;14.01;60.49
43119;BME280;28729;49.838;8.650;2023-04-08T15:02:09;100386.28;;;14.00;61.07
43119;BME280;28729;49.838;8.650;2023-04-08T15:06:11;100383.91;;;14.08;61.54
43119;BME280;28729;49.838;8.650;2023-04-08T15:10:17;100386.59;;;14.25;62.01
43119;BME280;28729;49.838;8.650;2023-04-08T15:14:19;100381.88;;;14.26;61.02
43119;BME280;28729;49.838;8.650;2023-04-08T15:18:20;100384.16;;;14.07;62.27
43119;BME280;28729;49.838;8.650;2023-04-08T15:22:22;100394.81;;;13.93;62.58
43119;BME280;28729;49.838;8.650;2023-04-08T15:26:24;100397.06;;;13.74;64.01
43119;BME280;28729;49.838;8.650;2023-04-08T15:30:26;100404.69;;;13.89;63.02
43119;BME280;28729;49.838;8.650;2023-04-08T15:34:28;100395.97;;;14.24;63.09
43119;BME280;28729;49.838;8.650;2023-04-08T15:38:29;100401.78;;;15.04;61.18
43119;BME280;28729;49.838;8.650;2023-04-08T15:42:34;100395.03;;;15.69;59.03
43119;BME280;28729;49.838;8.650;2023-04-08T15:46:36;100401.28;;;15.97;56.68
43119;BME280;28729;49.838;8.650;2023-04-08T15:50:38;100400.88;;;16.31;56.36
43119;BME280;28729;49.838;8.650;2023-04-08T15:54:40;100397.66;;;15.86;56.48
43119;BME280;28729;49.838;8.650;2023-04-08T15:58:43;100399.84;;;15.04;58.32
43119;BME280;28729;49.838;8.650;2023-04-08T16:02:45;100398.41;;;14.65;60.22
43119;BME280;28729;49.838;8.650;2023-04-08T16:06:47;100404.13;;;14.31;61.72
43119;BME280;28729;49.838;8.650;2023-04-08T16:10:49;100409.88;;;14.02;62.93
43119;BME280;28729;49.838;8.650;2023-04-08T16:14:50;100410.56;;;13.71;64.87
43119;BME280;28729;49.838;8.650;2023-04-08T16:18:52;100413.72;;;13.57;64.73
43119;BME280;28729;49.838;8.650;2023-04-08T16:22:57;100419.94;;;13.48;65.15
43119;BME280;28729;49.838;8.650;2023-04-08T16:26:59;100416.09;;;13.32;66.65
43119;BME280;28729;49.838;8.650;2023-04-08T16:31:01;100421.13;;;13.35;66.65
43119;BME280;28729;49.838;8.650;2023-04-08T16:35:06;100425.81;;;13.34;66.99
43119;BME280;28729;49.838;8.650;2023-04-08T16:39:08;100427.38;;;13.13;67.59
43119;BME280;28729;49.838;8.650;2023-04-08T16:43:10;100429.31;;;12.96;69.47
43119;BME280;28729;49.838;8.650;2023-04-08T16:47:14;100424.84;;;12.78;69.35
43119;BME280;28729;49.838;8.650;2023-04-08T16:51:18;100429.38;;;12.67;69.63
43119;BME280;28729;49.838;8.650;2023-04-08T16:55:19;100429.50;;;12.44;70.76
43119;BME280;28729;49.838;8.650;2023-04-08T16:59:21;100437.66;;;12.10;73.52
43119;BME280;28729;49.838;8.650;2023-04-08T17:03:23;100440.56;;;11.92;73.92
43119;BME280;28729;49.838;8.650;2023-04-08T17:07:27;100440.34;;;11.81;75.31
43119;BME280;28729;49.838;8.650;2023-04-08T17:11:28;100436.75;;;11.69;75.65
43119;BME280;28729;49.838;8.650;2023-04-08T17:15:31;100440.00;;;11.66;76.12
43119;BME280;28729;49.838;8.650;2023-04-08T17:19:35;100439.53;;;11.57;75.79
43119;BME280;28729;49.838;8.650;2023-04-08T17:23:37;100456.66;;;11.48;78.19
43119;BME280;28729;49.838;8.650;2023-04-08T17:27:40;100452.00;;;11.48;77.54
43119;BME280;28729;49.838;8.650;2023-04-08T17:31:42;100461.84;;;11.56;78.07
43119;BME280;28729;49.838;8.650;2023-04-08T17:35:44;100457.75;;;11.58;79.31
43119;BME280;28729;49.838;8.650;2023-04-08T17:39:46;100463.50;;;11.57;81.24
43119;BME280;28729;49.838;8.650;2023-04-08T17:43:48;100465.19;;;11.46;82.08
43119;BME280;28729;49.838;8.650;2023-04-08T17:47:50;100466.28;;;11.33;81.81
43119;BME280;28729;49.838;8.650;2023-04-08T17:51:52;100470.94;;;11.33;81.22
43119;BME280;28729;49.838;8.650;2023-04-08T17:55:54;100478.16;;;11.34;81.01
43119;BME280;28729;49.838;8.650;2023-04-08T17:59:56;100475.50;;;11.27;81.27
43119;BME280;28729;49.838;8.650;2023-04-08T18:03:58;100474.16;;;11.18;81.34
43119;BME280;28729;49.838;8.650;2023-04-08T18:07:59;100478.47;;;11.14;81.15
43119;BME280;28729;49.838;8.650;2023-04-08T18:12:03;100481.00;;;11.04;80.19
43119;BME280;28729;49.838;8.650;2023-04-08T18:16:17;100485.28;;;11.00;80.08
43119;BME280;28729;49.838;8.650;2023-04-08T18:20:21;100492.00;;;10.92;79.29
43119;BME280;28729;49.838;8.650;2023-04-08T18:24:23;100494.34;;;10.88;77.91
43119;BME280;28729;49.838;8.650;2023-04-08T18:28:24;100500.34;;;10.85;77.82
43119;BME280;28729;49.838;8.650;2023-04-08T18:32:26;100504.91;;;10.80;77.72
43119;BME280;28729;49.838;8.650;2023-04-08T18:36:28;100510.03;;;10.76;77.26
43119;BME280;28729;49.838;8.650;2023-04-08T18:40:30;100510.97;;;10.70;77.14
43119;BME280;28729;49.838;8.650;2023-04-08T18:44:33;100515.75;;;10.63;76.75
43119;BME280;28729;49.838;8.650;2023-04-08T18:48:35;100513.28;;;10.55;76.11
43119;BME280;28729;49.838;8.650;2023-04-08T18:52:37;100520.81;;;10.47;76.43
43119;BME280;28729;49.838;8.650;2023-04-08T18:56:39;100520.88;;;10.41;75.41
43119;BME280;28729;49.838;8.650;2023-04-08T19:00:41;100522.69;;;10.35;75.37
43119;BME280;28729;49.838;8.650;2023-04-08T19:04:44;100529.69;;;10.31;76.42
43119;BME280;28729;49.838;8.650;2023-04-08T19:08:46;100529.75;;;10.24;76.47
43119;BME280;28729;49.838;8.650;2023-04-08T19:12:48;100540.84;;;10.18;76.46
43119;BME280;28729;49.838;8.650;2023-04-08T19:16:51;100533.53;;;10.12;77.26
43119;BME280;28729;49.838;8.650;2023-04-08T19:20:52;100540.53;;;10.08;77.56
43119;BME280;28729;49.838;8.650;2023-04-08T19:24:54;100542.53;;;10.00;77.65
43119;BME280;28729;49.838;8.650;2023-04-08T19:28:56;100543.72;;;9.86;78.37
43119;BME280;28729;49.838;8.650;2023-04-08T19:32:59;100548.94;;;9.76;78.89
43119;BME280;28729;49.838;8.650;2023-04-08T19:37:01;100548.66;;;9.59;79.53
43119;BME280;28729;49.838;8.650;2023-04-08T19:41:03;100549.63;;;9.46;80.29
43119;BME280;28729;49.838;8.650;2023-04-08T19:45:07;100547.41;;;9.30;81.55
43119;BME280;28729;49.838;8.650;2023-04-08T19:49:10;100551.75;;;9.12;82.15
43119;BME280;28729;49.838;8.650;2023-04-08T19:53:14;100559.94;;;8.94;83.96
43119;BME280;28729;49.838;8.650;2023-04-08T19:57:17;100563.41;;;8.76;84.93
43119;BME280;28729;49.838;8.650;2023-04-08T20:01:20;100565.41;;;8.56;86.01
43119;BME280;28729;49.838;8.650;2023-04-08T20:05:22;100560.81;;;8.36;86.78
43119;BME280;28729;49.838;8.650;2023-04-08T20:09:24;100567.00;;;8.18;88.46
43119;BME280;28729;49.838;8.650;2023-04-08T20:13:26;100574.22;;;7.99;89.42
43119;BME280;28729;49.838;8.650;2023-04-08T20:17:28;100564.53;;;7.84;90.45
43119;BME280;28729;49.838;8.650;2023-04-08T20:21:30;100568.34;;;7.69;91.38
43119;BME280;28729;49.838;8.650;2023-04-08T20:25:33;100568.81;;;7.53;92.70
43119;BME280;28729;49.838;8.650;2023-04-08T20:29:34;100568.19;;;7.38;94.35
43119;BME280;28729;49.838;8.650;2023-04-08T20:33:36;100562.47;;;7.26;95.47
43119;BME280;28729;49.838;8.650;2023-04-08T20:37:44;100569.41;;;7.15;96.19
43119;BME280;28729;49.838;8.650;2023-04-08T20:41:46;100563.88;;;7.02;96.33
43119;BME280;28729;49.838;8.650;2023-04-08T20:45:48;100564.09;;;6.94;96.81
43119;BME280;28729;49.838;8.650;2023-04-08T20:49:50;100568.09;;;6.84;98.14
43119;BME280;28729;49.838;8.650;2023-04-08T20:53:52;100577.34;;;6.77;98.85
43119;BME280;28729;49.838;8.650;2023-04-08T20:57:53;100576.66;;;6.68;99.28
43119;BME280;28729;49.838;8.650;2023-04-08T21:01:55;100584.03;;;6.61;99.92
43119;BME280;28729;49.838;8.650;2023-04-08T21:05:57;100590.34;;;6.55;100.00
43119;BME280;28729;49.838;8.650;2023-04-08T21:09:59;100588.16;;;6.44;100.00
43119;BME280;28729;49.838;8.650;2023-04-08T21:14:01;100587.28;;;6.36;100.00
43119;BME280;28729;49.838;8.650;2023-04-08T21:18:03;100585.75;;;6.27;100.00